Time;durP1;ratioP1;P1;durP2;ratioP2;P2;SDS_P1;SDS_P2;PMS_P1;PMS_P2;Temp;Humidity;BMP_temperature;BMP_pressure;BME280_temperature;BME280_humidity;BME280_pressure;Samples;Min_cycle;Max_cycle;Signal;HPM_P1;HPM_P2
2023/08/03 00:00:13;;;;;;;3.08;0.60;;;18.20;99.90;;;;;;5033663;28;20030;-62
2023/08/03 00:02:39;;;;;;;0.82;0.50;;;18.30;99.90;;;;;;5037480;28;20106;-63
2023/08/03 00:05:05;;;;;;;1.52;0.80;;;18.30;99.90;;;;;;5029085;28;20030;-63
2023/08/03 00:07:32;;;;;;;3.88;0.80;;;18.30;99.90;;;;;;5032345;28;20037;-61
2023/08/03 00:09:57;;;;;;;2.05;0.50;;;18.30;99.90;;;;;;5037818;28;20078;-63
2023/08/03 00:12:23;;;;;;;5.57;1.08;;;18.20;99.90;;;;;;5038136;28;20441;-62
2023/08/03 00:14:52;;;;;;;1.75;0.90;;;18.40;99.90;;;;;;5033794;28;20040;-63
2023/08/03 00:17:18;;;;;;;4.72;0.68;;;18.50;99.90;;;;;;5027768;28;20059;-62
2023/08/03 00:19:43;;;;;;;4.35;0.95;;;18.50;99.90;;;;;;5036870;28;20072;-62
2023/08/03 00:22:09;;;;;;;2.35;0.80;;;18.40;99.90;;;;;;5033224;28;20025;-61
2023/08/03 00:24:36;;;;;;;3.45;0.65;;;18.40;99.90;;;;;;5034624;28;20021;-62
2023/08/03 00:27:02;;;;;;;2.58;0.52;;;18.40;99.90;;;;;;5036192;28;20029;-62
2023/08/03 00:29:27;;;;;;;0.93;0.55;;;18.40;99.90;;;;;;5032657;28;20029;-61
2023/08/03 00:31:53;;;;;;;2.83;0.70;;;18.40;99.90;;;;;;5032225;28;20053;-63
2023/08/03 00:34:18;;;;;;;4.70;0.52;;;18.40;99.90;;;;;;5037185;28;20127;-60
2023/08/03 00:36:44;;;;;;;1.50;0.70;;;18.40;99.90;;;;;;5028225;28;20025;-63
2023/08/03 00:39:10;;;;;;;1.73;0.43;;;18.50;99.90;;;;;;5032759;28;20061;-62
2023/08/03 00:41:35;;;;;;;2.67;0.50;;;18.50;99.90;;;;;;5029870;28;20017;-62
2023/08/03 00:44:01;;;;;;;0.90;0.57;;;18.50;99.90;;;;;;5035162;28;20013;-62
2023/08/03 00:46:27;;;;;;;0.50;0.32;;;18.50;99.90;;;;;;5031280;28;20109;-63
2023/08/03 00:48:52;;;;;;;0.60;0.47;;;18.50;99.90;;;;;;5033408;28;20120;-63
2023/08/03 00:51:18;;;;;;;2.83;0.73;;;18.40;99.90;;;;;;5033050;28;20025;-63
2023/08/03 00:53:45;;;;;;;0.60;0.45;;;18.40;99.90;;;;;;5030947;28;20025;-62
2023/08/03 00:56:16;;;;;;;5.65;0.57;;;18.40;99.90;;;;;;5032486;28;20036;-62
2023/08/03 00:58:42;;;;;;;1.10;0.40;;;18.50;99.90;;;;;;5048244;28;20120;-60
2023/08/03 01:01:07;;;;;;;2.47;0.60;;;18.70;99.90;;;;;;5035465;28;20100;-62
2023/08/03 01:03:33;;;;;;;2.60;0.63;;;18.80;99.90;;;;;;5039991;28;20029;-61
2023/08/03 01:05:59;;;;;;;4.82;0.70;;;18.80;99.90;;;;;;5033703;28;20087;-61
2023/08/03 01:08:25;;;;;;;2.30;0.45;;;18.70;99.90;;;;;;5037674;28;20060;-61
2023/08/03 01:10:51;;;;;;;2.75;0.60;;;18.70;99.90;;;;;;5031934;28;20041;-62
2023/08/03 01:13:17;;;;;;;1.48;0.40;;;18.70;99.90;;;;;;5028753;28;20034;-62
2023/08/03 01:15:43;;;;;;;4.63;0.93;;;18.70;99.90;;;;;;5031671;28;20409;-61
2023/08/03 01:18:09;;;;;;;3.90;0.60;;;18.80;99.90;;;;;;5027779;28;20029;-61
2023/08/03 01:20:37;;;;;;;3.50;0.40;;;18.80;99.90;;;;;;5031306;28;20037;-62
2023/08/03 01:23:05;;;;;;;1.67;0.60;;;18.80;99.90;;;;;;5034594;28;20032;-59
2023/08/03 01:25:32;;;;;;;1.27;0.60;;;18.80;99.90;;;;;;5032652;28;20408;-62
2023/08/03 01:27:57;;;;;;;1.88;0.57;;;18.70;99.90;;;;;;5028048;28;20029;-63
2023/08/03 01:30:23;;;;;;;3.15;0.60;;;18.70;99.90;;;;;;5026630;28;20048;-62
2023/08/03 01:32:49;;;;;;;2.45;0.80;;;18.70;99.90;;;;;;5031099;28;20179;-62
2023/08/03 01:35:15;;;;;;;6.75;0.77;;;18.70;99.90;;;;;;5036544;28;20033;-61
2023/08/03 01:37:41;;;;;;;1.15;0.50;;;18.60;99.90;;;;;;5031533;28;20028;-61
2023/08/03 01:40:07;;;;;;;2.17;0.68;;;18.60;99.90;;;;;;5029010;28;20114;-63
2023/08/03 01:42:32;;;;;;;4.22;0.70;;;18.50;99.90;;;;;;5033930;28;20030;-63
2023/08/03 01:44:58;;;;;;;1.55;0.80;;;18.50;99.90;;;;;;5031227;28;20022;-62
2023/08/03 01:47:24;;;;;;;2.67;0.75;;;18.40;99.90;;;;;;5027277;28;20416;-62
2023/08/03 01:49:49;;;;;;;3.95;0.85;;;18.30;99.90;;;;;;5028674;28;20193;-63
2023/08/03 01:52:15;;;;;;;1.10;0.63;;;18.30;99.90;;;;;;5027584;28;20509;-62
2023/08/03 01:54:40;;;;;;;5.40;1.00;;;18.30;99.90;;;;;;5034047;28;20484;-62
2023/08/03 01:57:06;;;;;;;4.57;1.00;;;18.00;99.90;;;;;;5027773;28;20025;-64
2023/08/03 01:59:31;;;;;;;6.60;1.10;;;17.80;99.90;;;;;;5036796;28;20100;-63
2023/08/03 02:01:57;;;;;;;4.82;0.80;;;17.70;99.90;;;;;;5031924;28;20022;-62
2023/08/03 02:04:23;;;;;;;6.05;0.70;;;17.60;99.90;;;;;;5032429;28;20029;-62
2023/08/03 02:06:51;;;;;;;1.75;0.73;;;17.50;99.90;;;;;;5027273;28;20876;-62
2023/08/03 02:09:17;;;;;;;6.75;0.85;;;17.60;99.90;;;;;;5036163;28;20037;-64
2023/08/03 02:11:43;;;;;;;3.78;0.80;;;17.60;99.90;;;;;;5032066;28;20489;-62
2023/08/03 02:14:08;;;;;;;2.40;0.90;;;17.60;99.90;;;;;;5031542;28;20041;-62
2023/08/03 02:16:34;;;;;;;1.73;0.77;;;17.50;99.90;;;;;;5029721;28;20029;-63
2023/08/03 02:18:59;;;;;;;2.50;0.80;;;17.60;99.90;;;;;;5033537;28;20033;-61
2023/08/03 02:21:25;;;;;;;7.97;1.05;;;17.70;99.90;;;;;;5030082;28;20028;-61
2023/08/03 02:23:50;;;;;;;2.15;0.55;;;17.60;99.90;;;;;;5034563;28;20098;-62
2023/08/03 02:26:16;;;;;;;2.95;0.90;;;17.60;99.90;;;;;;5030627;28;20140;-62
2023/08/03 02:28:41;;;;;;;4.03;0.90;;;17.70;99.90;;;;;;5039648;28;20025;-62
2023/08/03 02:31:07;;;;;;;7.38;1.05;;;17.70;99.90;;;;;;5029696;28;20032;-62
2023/08/03 02:33:32;;;;;;;4.35;1.00;;;17.70;99.90;;;;;;5030852;28;20109;-64
2023/08/03 02:35:58;;;;;;;6.25;1.05;;;17.60;99.90;;;;;;5029980;28;20048;-63
2023/08/03 02:38:24;;;;;;;4.68;1.20;;;17.60;99.90;;;;;;5036890;28;20057;-63
2023/08/03 02:40:50;;;;;;;2.30;0.75;;;17.60;99.90;;;;;;5031762;28;20021;-63
2023/08/03 02:43:15;;;;;;;3.97;0.80;;;17.60;99.90;;;;;;5034025;28;20032;-63
2023/08/03 02:45:41;;;;;;;2.72;0.77;;;17.60;99.90;;;;;;5028912;28;20516;-62
2023/08/03 02:48:06;;;;;;;6.28;0.75;;;17.70;99.90;;;;;;5030932;28;20045;-64
2023/08/03 02:50:32;;;;;;;1.10;0.70;;;17.70;99.90;;;;;;5032742;28;20076;-63
2023/08/03 02:52:58;;;;;;;3.22;0.57;;;17.70;99.90;;;;;;5030161;28;20084;-62
2023/08/03 02:55:23;;;;;;;2.45;0.50;;;17.70;99.90;;;;;;5032281;28;20104;-62
2023/08/03 02:57:49;;;;;;;1.42;0.65;;;17.80;99.90;;;;;;5037399;28;20053;-63
2023/08/03 03:00:16;;;;;;;1.25;0.65;;;17.80;99.90;;;;;;5027688;28;20433;-62
2023/08/03 03:02:42;;;;;;;5.28;0.60;;;17.80;99.90;;;;;;5028891;28;20524;-63
2023/08/03 03:05:08;;;;;;;4.22;0.80;;;17.90;99.90;;;;;;5050871;28;20029;-63
2023/08/03 03:07:34;;;;;;;4.35;0.85;;;17.90;99.90;;;;;;5030746;28;20043;-64
2023/08/03 03:09:59;;;;;;;2.92;0.70;;;17.80;99.90;;;;;;5029162;28;20034;-64
2023/08/03 03:12:25;;;;;;;2.80;0.60;;;17.80;99.90;;;;;;5027545;28;20029;-63
2023/08/03 03:14:51;;;;;;;0.95;0.50;;;17.80;99.90;;;;;;5032726;28;20032;-63
2023/08/03 03:17:16;;;;;;;2.20;0.63;;;17.80;99.90;;;;;;5028074;28;20052;-63
2023/08/03 03:19:42;;;;;;;5.70;0.85;;;17.80;99.90;;;;;;5032186;28;20021;-62
2023/08/03 03:22:08;;;;;;;2.67;0.60;;;17.80;99.90;;;;;;5030975;28;20496;-62
2023/08/03 03:24:34;;;;;;;0.68;0.50;;;17.80;99.90;;;;;;5028109;28;20064;-63
2023/08/03 03:26:59;;;;;;;3.30;0.50;;;17.90;99.90;;;;;;5026978;28;20029;-62
2023/08/03 03:29:25;;;;;;;0.80;0.60;;;17.90;99.90;;;;;;5026899;28;20536;-62
2023/08/03 03:31:50;;;;;;;2.00;0.40;;;17.90;99.90;;;;;;5027344;28;20064;-62
2023/08/03 03:34:16;;;;;;;1.80;0.50;;;17.90;99.90;;;;;;5035387;28;20036;-62
2023/08/03 03:36:41;;;;;;;1.73;0.43;;;17.90;99.90;;;;;;5032726;28;20481;-62
2023/08/03 03:39:07;;;;;;;1.13;0.40;;;17.90;99.90;;;;;;5030411;28;20110;-62
2023/08/03 03:41:33;;;;;;;2.15;0.40;;;17.90;99.90;;;;;;5030767;28;20033;-64
2023/08/03 03:43:58;;;;;;;3.90;0.50;;;17.90;99.90;;;;;;5033908;28;20018;-60
2023/08/03 03:46:24;;;;;;;1.17;0.50;;;17.90;99.90;;;;;;5025921;28;20132;-62
2023/08/03 03:48:49;;;;;;;1.17;0.50;;;17.90;99.90;;;;;;5035038;28;20029;-61
2023/08/03 03:51:17;;;;;;;5.43;0.57;;;17.90;99.90;;;;;;5029941;28;20038;-62
2023/08/03 03:53:43;;;;;;;0.68;0.43;;;17.90;99.90;;;;;;5034788;28;20112;-63
2023/08/03 03:56:08;;;;;;;1.88;0.60;;;17.90;99.90;;;;;;5028683;28;20153;-63
2023/08/03 03:58:34;;;;;;;1.70;0.40;;;17.90;99.90;;;;;;5033634;28;20470;-62
2023/08/03 04:01:00;;;;;;;2.65;0.30;;;17.90;99.90;;;;;;5028023;28;20017;-62
2023/08/03 04:03:26;;;;;;;0.70;0.30;;;17.70;99.90;;;;;;5031204;28;20111;-64
2023/08/03 04:05:53;;;;;;;0.32;0.30;;;17.60;99.90;;;;;;5031173;28;20509;-63
2023/08/03 04:08:18;;;;;;;0.30;0.30;;;17.50;99.90;;;;;;5028913;28;20033;-64
2023/08/03 04:10:44;;;;;;;1.67;0.40;;;17.40;99.90;;;;;;5029139;28;20107;-64
2023/08/03 04:13:09;;;;;;;0.90;0.30;;;17.30;99.90;;;;;;5032834;28;20494;-63
2023/08/03 04:15:35;;;;;;;4.10;0.40;;;17.20;99.90;;;;;;5031001;28;20548;-63
2023/08/03 04:18:01;;;;;;;0.45;0.45;;;17.10;99.90;;;;;;5032500;28;20477;-64
2023/08/03 04:20:26;;;;;;;0.20;0.20;;;17.10;99.90;;;;;;5033739;28;20532;-62
2023/08/03 04:22:52;;;;;;;0.30;0.30;;;17.00;99.90;;;;;;5035317;28;20432;-63
2023/08/03 04:25:17;;;;;;;2.20;0.57;;;17.00;99.90;;;;;;5034422;28;20030;-61
2023/08/03 04:27:43;;;;;;;0.40;0.40;;;16.90;99.90;;;;;;5032280;28;20037;-64
2023/08/03 04:30:13;;;;;;;0.50;0.40;;;16.90;99.90;;;;;;5031438;28;20070;-63
2023/08/03 04:32:39;;;;;;;3.00;0.55;;;16.90;99.90;;;;;;5033853;28;20025;-64
2023/08/03 04:35:06;;;;;;;0.73;0.40;;;16.90;99.90;;;;;;5036172;28;20032;-63
2023/08/03 04:37:31;;;;;;;4.50;0.52;;;16.90;99.90;;;;;;5039316;28;20017;-62
2023/08/03 04:39:57;;;;;;;5.88;0.57;;;16.80;99.90;;;;;;5034423;28;20025;-63
2023/08/03 04:42:22;;;;;;;2.15;0.40;;;16.80;99.90;;;;;;5034313;28;20492;-63
2023/08/03 04:44:49;;;;;;;0.95;0.55;;;16.80;99.90;;;;;;5033579;28;20061;-62
2023/08/03 04:47:15;;;;;;;2.85;0.40;;;16.80;99.90;;;;;;5030171;28;20489;-63
2023/08/03 04:49:41;;;;;;;1.17;0.40;;;16.80;99.90;;;;;;5035938;28;20070;-63
2023/08/03 04:52:06;;;;;;;1.17;0.45;;;16.90;99.90;;;;;;5032766;28;20033;-63
2023/08/03 04:54:32;;;;;;;0.73;0.43;;;16.90;99.90;;;;;;5034065;28;20277;-63
2023/08/03 04:56:57;;;;;;;0.73;0.60;;;17.00;99.90;;;;;;5032657;28;20033;-59
2023/08/03 04:59:23;;;;;;;3.10;0.35;;;17.00;99.90;;;;;;5040845;28;20025;-58
2023/08/03 05:01:49;;;;;;;0.70;0.40;;;17.00;99.90;;;;;;5029859;28;20025;-60
2023/08/03 05:04:14;;;;;;;0.80;0.60;;;17.00;99.90;;;;;;5033460;28;20032;-61
2023/08/03 05:06:40;;;;;;;4.20;0.50;;;17.00;99.90;;;;;;5040304;28;20109;-58
2023/08/03 05:09:05;;;;;;;1.08;0.60;;;17.00;99.90;;;;;;5030748;28;20120;-61
2023/08/03 05:11:31;;;;;;;0.63;0.40;;;17.10;99.90;;;;;;5029944;28;20029;-60
2023/08/03 05:13:56;;;;;;;1.15;0.40;;;17.20;99.90;;;;;;5030990;28;20084;-58
2023/08/03 05:16:24;;;;;;;1.80;0.50;;;17.30;99.90;;;;;;5032953;28;20479;-62
2023/08/03 05:18:50;;;;;;;0.68;0.40;;;17.30;99.90;;;;;;5032046;28;20022;-59
2023/08/03 05:21:17;;;;;;;1.40;0.50;;;17.40;99.90;;;;;;5025842;28;20113;-59
2023/08/03 05:23:43;;;;;;;0.95;0.40;;;17.40;99.90;;;;;;5030242;28;20033;-61
2023/08/03 05:26:08;;;;;;;1.15;0.57;;;17.50;99.90;;;;;;5032102;28;20063;-59
2023/08/03 05:28:34;;;;;;;1.40;0.40;;;17.60;99.90;;;;;;5034587;28;20037;-60
2023/08/03 05:31:00;;;;;;;2.83;0.43;;;17.60;99.90;;;;;;5031525;28;20021;-60
2023/08/03 05:33:26;;;;;;;1.48;0.20;;;17.50;99.90;;;;;;5033148;28;20037;-59
2023/08/03 05:35:52;;;;;;;0.80;0.65;;;17.50;99.90;;;;;;5025617;28;20026;-59
2023/08/03 05:38:18;;;;;;;1.92;0.90;;;17.40;99.90;;;;;;5031161;28;20100;-58
2023/08/03 05:40:44;;;;;;;0.30;0.30;;;17.40;99.90;;;;;;5034510;28;20064;-59
2023/08/03 05:43:13;;;;;;;0.75;0.50;;;17.50;99.90;;;;;;5039746;28;20493;-60
2023/08/03 05:45:48;;;;;;;1.40;0.50;;;17.50;99.90;;;;;;5033207;28;20517;-61
2023/08/03 05:48:19;;;;;;;0.40;0.30;;;17.50;99.90;;;;;;5038884;28;20028;-58
2023/08/03 05:50:50;;;;;;;0.52;0.50;;;17.40;99.90;;;;;;5027565;28;20025;-56
2023/08/03 05:53:16;;;;;;;0.30;0.30;;;17.50;99.90;;;;;;5035022;28;20029;-58
2023/08/03 05:55:43;;;;;;;0.55;0.32;;;17.50;99.90;;;;;;5030398;28;20386;-60
2023/08/03 05:58:12;;;;;;;2.08;0.22;;;17.50;99.90;;;;;;5027687;28;20173;-62
2023/08/03 06:00:39;;;;;;;0.93;0.28;;;17.60;99.90;;;;;;5025482;28;20021;-60
2023/08/03 06:03:04;;;;;;;1.65;0.30;;;17.70;99.90;;;;;;5026515;28;20028;-63
2023/08/03 06:05:38;;;;;;;0.40;0.38;;;17.70;99.90;;;;;;5025970;28;20025;-59
2023/08/03 06:08:18;;;;;;;2.10;0.40;;;17.70;99.90;;;;;;5028975;28;22015;-59
2023/08/03 06:10:48;;;;;;;0.40;0.40;;;17.70;99.90;;;;;;5031439;28;20112;-59
2023/08/03 06:13:16;;;;;;;4.50;0.50;;;17.80;99.90;;;;;;5034023;28;20053;-63
2023/08/03 06:15:43;;;;;;;0.70;0.50;;;17.80;99.90;;;;;;5028025;28;20060;-63
2023/08/03 06:18:13;;;;;;;4.85;0.50;;;17.90;99.90;;;;;;5029016;28;20037;-59
2023/08/03 06:20:42;;;;;;;2.60;0.50;;;17.90;99.90;;;;;;5028961;28;20493;-60
2023/08/03 06:23:15;;;;;;;0.50;0.35;;;17.90;99.90;;;;;;5025370;28;20036;-58
2023/08/03 06:25:41;;;;;;;1.02;0.50;;;17.90;99.90;;;;;;5033577;28;20029;-58
2023/08/03 06:28:09;;;;;;;1.02;0.52;;;17.90;99.90;;;;;;5026693;28;20493;-61
2023/08/03 06:30:35;;;;;;;3.17;0.60;;;17.90;99.90;;;;;;5031856;28;20028;-60
2023/08/03 06:33:01;;;;;;;0.95;0.40;;;18.00;99.90;;;;;;5033134;28;20032;-60
2023/08/03 06:35:39;;;;;;;1.33;0.50;;;18.00;99.90;;;;;;5031266;28;20026;-60
2023/08/03 06:38:06;;;;;;;0.77;0.40;;;18.00;99.90;;;;;;5032124;28;20108;-59
2023/08/03 06:40:32;;;;;;;4.20;0.50;;;18.10;99.90;;;;;;5034061;28;20025;-61
2023/08/03 06:43:00;;;;;;;1.65;0.40;;;18.10;99.90;;;;;;5025550;28;20032;-60
2023/08/03 06:45:25;;;;;;;0.88;0.47;;;18.10;99.90;;;;;;5021300;28;20095;-61
2023/08/03 06:47:52;;;;;;;1.23;0.43;;;18.10;99.90;;;;;;5025505;28;20520;-60
2023/08/03 06:50:18;;;;;;;0.85;0.40;;;18.20;99.90;;;;;;5024591;28;20037;-60
2023/08/03 06:52:43;;;;;;;0.75;0.47;;;18.20;99.90;;;;;;5029526;28;20433;-59
2023/08/03 06:55:09;;;;;;;1.50;0.50;;;18.20;99.90;;;;;;5027143;28;20033;-57
2023/08/03 06:57:34;;;;;;;2.78;0.35;;;18.10;99.90;;;;;;5027204;28;20044;-59
2023/08/03 07:00:00;;;;;;;0.50;0.50;;;18.00;99.90;;;;;;5034503;28;20039;-60
2023/08/03 07:02:26;;;;;;;1.40;0.50;;;17.90;99.90;;;;;;5032753;28;20031;-60
2023/08/03 07:04:52;;;;;;;1.15;0.45;;;17.80;99.90;;;;;;5029690;28;20037;-60
2023/08/03 07:07:17;;;;;;;2.10;0.50;;;17.70;99.90;;;;;;5029356;28;20104;-58
2023/08/03 07:09:49;;;;;;;0.40;0.40;;;17.60;99.90;;;;;;5029901;28;20044;-61
2023/08/03 07:12:15;;;;;;;1.83;0.50;;;17.60;99.90;;;;;;5027934;28;20036;-60
2023/08/03 07:14:41;;;;;;;6.05;0.90;;;17.60;99.90;;;;;;5039379;28;20091;-60
2023/08/03 07:17:06;;;;;;;4.35;0.90;;;17.50;99.90;;;;;;5026772;28;20025;-60
2023/08/03 07:19:32;;;;;;;1.33;0.80;;;17.40;99.90;;;;;;5031053;28;20025;-61
2023/08/03 07:21:58;;;;;;;4.80;1.30;;;17.30;99.90;;;;;;5029767;28;20121;-60
2023/08/03 07:24:23;;;;;;;1.98;0.57;;;17.30;99.90;;;;;;5028775;28;20025;-59
2023/08/03 07:26:50;;;;;;;1.52;0.60;;;17.20;99.90;;;;;;5031875;28;20033;-61
2023/08/03 07:29:16;;;;;;;4.47;1.08;;;17.20;99.90;;;;;;5032441;28;20492;-60
2023/08/03 07:31:41;;;;;;;2.05;0.73;;;17.10;99.90;;;;;;5020762;28;20037;-59
2023/08/03 07:34:07;;;;;;;2.45;0.80;;;17.20;99.90;;;;;;5029248;28;20025;-57
2023/08/03 07:36:33;;;;;;;1.20;1.08;;;17.20;99.90;;;;;;5025687;28;20064;-59
2023/08/03 07:38:58;;;;;;;4.53;1.20;;;17.10;99.90;;;;;;5031497;28;20031;-62
2023/08/03 07:41:24;;;;;;;3.00;0.90;;;17.20;99.90;;;;;;5029931;28;20064;-61
2023/08/03 07:43:52;;;;;;;2.17;0.90;;;17.20;99.90;;;;;;5036239;28;20631;-60
2023/08/03 07:46:17;;;;;;;3.10;0.85;;;17.30;99.90;;;;;;5030774;28;20120;-60
2023/08/03 07:48:43;;;;;;;3.45;0.93;;;17.40;99.90;;;;;;5030292;28;20104;-60
2023/08/03 07:51:15;;;;;;;1.60;0.60;;;17.50;99.90;;;;;;5033360;28;20057;-60
2023/08/03 07:53:41;;;;;;;3.60;0.88;;;17.60;99.90;;;;;;5032302;28;20567;-61
2023/08/03 07:56:17;;;;;;;0.60;0.45;;;17.70;99.90;;;;;;5028807;28;20083;-59
2023/08/03 07:58:44;;;;;;;1.58;0.70;;;17.80;99.90;;;;;;5038424;28;20696;-62
2023/08/03 08:01:10;;;;;;;5.38;0.88;;;17.80;99.90;;;;;;5037355;28;20627;-63
2023/08/03 08:03:37;;;;;;;2.40;0.50;;;17.80;99.90;;;;;;5030753;28;20017;-59
2023/08/03 08:06:08;;;;;;;2.17;0.52;;;17.80;99.90;;;;;;5033288;28;20517;-60
2023/08/03 08:08:34;;;;;;;2.38;0.52;;;17.80;99.90;;;;;;5031447;28;20037;-61
2023/08/03 08:11:00;;;;;;;1.13;0.60;;;17.80;99.90;;;;;;5031009;28;20028;-61
2023/08/03 08:13:26;;;;;;;1.10;0.60;;;17.80;99.90;;;;;;5037845;28;20477;-59
2023/08/03 08:15:51;;;;;;;1.70;0.60;;;18.00;99.90;;;;;;5033445;28;20551;-58
2023/08/03 08:18:17;;;;;;;4.45;0.85;;;18.00;99.90;;;;;;5032351;28;20910;-59
2023/08/03 08:20:44;;;;;;;3.63;0.50;;;18.10;99.90;;;;;;5028537;28;20077;-62
2023/08/03 08:23:10;;;;;;;3.90;0.68;;;18.10;99.90;;;;;;5037492;28;20032;-61
2023/08/03 08:25:37;;;;;;;2.92;0.63;;;18.20;99.90;;;;;;5031001;28;20029;-62
2023/08/03 08:28:03;;;;;;;1.88;0.70;;;18.20;99.90;;;;;;5032244;28;20053;-62
2023/08/03 08:30:29;;;;;;;3.97;0.60;;;18.20;99.90;;;;;;5031248;28;20037;-61
2023/08/03 08:32:54;;;;;;;3.83;0.60;;;18.30;99.90;;;;;;5033137;28;20037;-61
2023/08/03 08:35:20;;;;;;;1.15;0.50;;;18.30;99.90;;;;;;5035997;28;20087;-61
2023/08/03 08:37:45;;;;;;;1.85;0.50;;;18.30;99.90;;;;;;5031051;28;20037;-62
2023/08/03 08:40:11;;;;;;;3.70;0.60;;;18.40;99.90;;;;;;5030620;28;20582;-58
2023/08/03 08:42:37;;;;;;;3.35;0.55;;;18.50;99.90;;;;;;5032801;28;20785;-62
2023/08/03 08:45:05;;;;;;;2.63;0.60;;;18.50;99.90;;;;;;5029643;28;20108;-61
2023/08/03 08:47:30;;;;;;;1.63;0.60;;;18.60;99.90;;;;;;5031387;28;20025;-61
2023/08/03 08:49:56;;;;;;;0.63;0.50;;;18.60;99.90;;;;;;5028651;28;20115;-58
2023/08/03 08:52:23;;;;;;;1.50;0.70;;;18.50;99.90;;;;;;5030745;28;20048;-59
2023/08/03 08:54:48;;;;;;;2.00;0.57;;;18.50;99.90;;;;;;5026294;28;20064;-61
2023/08/03 08:57:15;;;;;;;2.33;0.60;;;18.50;99.90;;;;;;5032302;28;20053;-61
2023/08/03 08:59:57;;;;;;;1.83;0.52;;;18.60;99.90;;;;;;5031402;28;20021;-60
2023/08/03 09:02:26;;;;;;;1.52;0.57;;;18.60;99.90;;;;;;5024387;28;20033;-60
2023/08/03 09:04:51;;;;;;;1.73;0.82;;;18.60;99.90;;;;;;5032609;28;20500;-62
2023/08/03 09:07:17;;;;;;;1.25;0.60;;;18.60;99.90;;;;;;5031766;28;20047;-63
2023/08/03 09:09:43;;;;;;;1.85;0.50;;;18.60;99.90;;;;;;5034968;28;20436;-60
2023/08/03 09:12:08;;;;;;;2.92;0.70;;;18.60;99.90;;;;;;5031675;28;20037;-61
2023/08/03 09:14:49;;;;;;;1.48;0.68;;;18.50;99.90;;;;;;5030970;28;20029;-59
2023/08/03 09:17:19;;;;;;;2.33;0.50;;;18.30;99.90;;;;;;5034101;28;20079;-61
2023/08/03 09:19:45;;;;;;;2.70;0.50;;;18.20;99.90;;;;;;5034638;28;20045;-62
2023/08/03 09:22:11;;;;;;;1.58;0.50;;;18.10;99.90;;;;;;5046850;28;20060;-62
2023/08/03 09:24:37;;;;;;;6.93;0.60;;;18.20;99.90;;;;;;5032267;28;20061;-61
2023/08/03 09:27:03;;;;;;;2.42;0.70;;;18.20;99.90;;;;;;5033008;28;20033;-59
2023/08/03 09:29:32;;;;;;;2.92;0.68;;;18.10;99.90;;;;;;5031853;28;20117;-59
2023/08/03 09:32:05;;;;;;;1.02;0.50;;;18.10;99.90;;;;;;5036963;28;20038;-57
2023/08/03 09:34:38;;;;;;;1.20;0.50;;;18.00;99.90;;;;;;5031934;28;20036;-62
2023/08/03 09:37:06;;;;;;;0.80;0.60;;;17.80;99.90;;;;;;5026751;28;20025;-62
2023/08/03 09:39:34;;;;;;;1.40;0.80;;;17.80;99.90;;;;;;5032483;28;20033;-60
2023/08/03 09:42:03;;;;;;;2.28;0.63;;;17.80;99.90;;;;;;5028217;28;20021;-60
2023/08/03 09:44:31;;;;;;;1.38;0.60;;;17.90;99.90;;;;;;5029957;28;20497;-57
2023/08/03 09:46:57;;;;;;;1.45;0.60;;;17.90;99.90;;;;;;5027337;28;20037;-62
2023/08/03 09:49:24;;;;;;;0.82;0.60;;;17.80;99.90;;;;;;5033303;28;20031;-60
2023/08/03 09:51:54;;;;;;;2.28;0.47;;;17.80;99.90;;;;;;5033307;28;20528;-59
2023/08/03 09:54:37;;;;;;;1.30;0.50;;;17.60;99.90;;;;;;5027018;28;20450;-62
2023/08/03 09:57:08;;;;;;;1.98;0.70;;;17.60;99.90;;;;;;5029631;28;20028;-59
2023/08/03 09:59:36;;;;;;;1.65;0.50;;;17.80;99.90;;;;;;5029216;28;20036;-60
2023/08/03 10:02:05;;;;;;;0.95;0.50;;;17.90;99.90;;;;;;5029800;28;20024;-59
2023/08/03 10:04:39;;;;;;;0.75;0.63;;;18.00;99.90;;;;;;5026399;28;20516;-61
2023/08/03 10:07:08;;;;;;;5.25;0.68;;;18.10;99.90;;;;;;5032377;28;20071;-58
2023/08/03 10:09:38;;;;;;;1.55;0.60;;;18.30;99.90;;;;;;5033151;28;20041;-57
2023/08/03 10:12:07;;;;;;;3.75;0.57;;;18.40;99.90;;;;;;5032742;28;20021;-62
2023/08/03 10:14:38;;;;;;;1.35;0.47;;;18.40;99.90;;;;;;5033421;28;20437;-61
2023/08/03 10:17:05;;;;;;;1.30;0.70;;;18.40;99.90;;;;;;5030185;28;20528;-61
2023/08/03 10:19:31;;;;;;;0.75;0.45;;;18.50;99.90;;;;;;5029073;28;20041;-61
2023/08/03 10:21:57;;;;;;;0.63;0.45;;;18.80;99.90;;;;;;5025799;28;20492;-58
2023/08/03 10:24:23;;;;;;;4.32;0.60;;;19.20;99.90;;;;;;5034755;28;20109;-59
2023/08/03 10:26:54;;;;;;;1.88;0.60;;;19.40;99.90;;;;;;5027151;28;20047;-62
2023/08/03 10:29:52;;;;;;;5.95;1.13;;;19.30;99.90;;;;;;5024163;28;20109;-59
2023/08/03 10:32:19;;;;;;;4.78;0.93;;;19.30;99.90;;;;;;5034313;28;20424;-61
2023/08/03 10:34:44;;;;;;;1.55;0.68;;;19.30;99.90;;;;;;5029496;28;20558;-57
2023/08/03 10:37:14;;;;;;;0.77;0.60;;;19.40;99.90;;;;;;5030312;28;20140;-60
2023/08/03 10:39:53;;;;;;;2.03;0.88;;;19.60;99.90;;;;;;5030465;28;20033;-61
2023/08/03 10:42:38;;;;;;;1.60;0.60;;;19.60;99.90;;;;;;5032097;28;20111;-58
2023/08/03 10:45:21;;;;;;;;;;;19.60;99.90;;;;;;5030734;28;20029;-62
2023/08/03 10:47:47;;;;;;;9.55;0.88;;;19.70;99.90;;;;;;5030045;28;19995;-61
2023/08/03 10:50:12;;;;;;;8.25;1.23;;;19.90;99.90;;;;;;5027563;28;20033;-62
2023/08/03 10:52:38;;;;;;;2.55;0.70;;;20.10;99.90;;;;;;5027910;28;20388;-59
2023/08/03 10:55:25;;;;;;;2.63;0.70;;;20.20;99.90;;;;;;5031660;28;20053;-60
2023/08/03 10:57:51;;;;;;;5.25;1.00;;;20.10;99.90;;;;;;5026804;28;20025;-61
2023/08/03 11:00:17;;;;;;;7.40;1.15;;;19.90;99.90;;;;;;5025436;28;20030;-60
2023/08/03 11:02:43;;;;;;;4.95;0.90;;;19.90;99.90;;;;;;5026773;28;20021;-61
2023/08/03 11:05:11;;;;;;;5.25;0.90;;;20.10;99.90;;;;;;5029679;28;20390;-64
2023/08/03 11:07:44;;;;;;;5.05;1.10;;;20.20;99.90;;;;;;5020836;28;20104;-62
2023/08/03 11:10:12;;;;;;;4.13;1.05;;;20.20;99.90;;;;;;5024711;28;20556;-62
2023/08/03 11:12:39;;;;;;;8.23;1.10;;;20.30;99.90;;;;;;5024768;28;20045;-61
2023/08/03 11:15:07;;;;;;;4.22;1.00;;;20.30;99.90;;;;;;5024298;28;20041;-61
2023/08/03 11:17:35;;;;;;;2.95;1.20;;;20.30;99.90;;;;;;5022683;28;20481;-59
2023/08/03 11:20:03;;;;;;;4.43;1.38;;;20.30;99.90;;;;;;5019640;28;20037;-61
2023/08/03 11:22:30;;;;;;;5.30;1.35;;;20.10;99.90;;;;;;5022791;28;20022;-59
2023/08/03 11:24:57;;;;;;;2.80;1.10;;;20.20;99.90;;;;;;5026064;28;20528;-61
2023/08/03 11:27:23;;;;;;;4.07;1.02;;;20.40;99.90;;;;;;5032101;28;20030;-61
2023/08/03 11:29:51;;;;;;;5.20;1.08;;;20.40;99.90;;;;;;5029912;28;20029;-62
2023/08/03 11:32:27;;;;;;;3.90;1.10;;;20.70;99.90;;;;;;5029753;28;20850;-59
2023/08/03 11:34:57;;;;;;;5.28;1.15;;;20.90;99.90;;;;;;5025489;28;20068;-60
2023/08/03 11:37:23;;;;;;;9.93;1.27;;;20.70;99.90;;;;;;5028867;28;20057;-61
2023/08/03 11:39:49;;;;;;;4.03;1.17;;;20.60;99.90;;;;;;5030613;28;20075;-60
2023/08/03 11:42:15;;;;;;;6.47;1.10;;;20.50;99.90;;;;;;5026290;28;20025;-61
2023/08/03 11:44:45;;;;;;;6.40;1.10;;;20.60;99.90;;;;;;5030624;28;20029;-62
2023/08/03 11:47:11;;;;;;;4.13;1.00;;;20.60;99.90;;;;;;5025565;28;20060;-61
2023/08/03 11:49:36;;;;;;;8.82;1.13;;;20.70;99.90;;;;;;5024679;28;20083;-61
2023/08/03 11:52:02;;;;;;;3.92;1.13;;;20.80;99.90;;;;;;5035914;28;20029;-57
2023/08/03 11:54:29;;;;;;;5.82;1.10;;;21.00;99.90;;;;;;5031641;28;20026;-62
2023/08/03 11:58:07;;;;;;;9.85;1.45;;;21.20;99.90;;;;;;5027374;28;20034;-58
2023/08/03 11:59:46;;;;;;;8.05;1.65;;;21.10;99.90;;;;;;5039266;28;20071;-63
2023/08/03 12:02:12;;;;;;;6.50;1.50;;;20.90;99.90;;;;;;5034000;28;20029;-62
2023/08/03 12:04:38;;;;;;;6.43;1.20;;;20.70;99.90;;;;;;5025275;28;20465;-62
2023/08/03 12:07:05;;;;;;;5.18;1.40;;;20.60;99.90;;;;;;5031500;28;20036;-59
2023/08/03 12:09:40;;;;;;;6.65;1.55;;;20.60;99.90;;;;;;5035901;28;20021;-62
2023/08/03 12:12:07;;;;;;;3.88;1.08;;;20.70;99.90;;;;;;5030126;28;20022;-62
2023/08/03 12:14:33;;;;;;;2.17;1.30;;;20.80;99.90;;;;;;5033209;28;20049;-61
2023/08/03 12:16:59;;;;;;;1.10;0.70;;;20.90;99.90;;;;;;5029195;28;20049;-57
2023/08/03 12:19:32;;;;;;;1.80;1.17;;;21.10;99.90;;;;;;5033574;28;20374;-58
2023/08/03 12:21:57;;;;;;;2.95;1.00;;;21.10;99.90;;;;;;5038238;28;20025;-61
2023/08/03 12:24:23;;;;;;;2.88;0.93;;;20.90;99.90;;;;;;5033098;28;20102;-60
2023/08/03 12:26:48;;;;;;;3.38;0.85;;;21.10;99.90;;;;;;5029681;28;20195;-61
2023/08/03 12:29:14;;;;;;;3.28;0.90;;;21.20;99.90;;;;;;5039240;28;20032;-59
2023/08/03 12:31:40;;;;;;;2.90;0.82;;;21.20;99.90;;;;;;5026710;28;20021;-55
2023/08/03 12:34:05;;;;;;;2.80;0.90;;;21.20;99.90;;;;;;5032183;28;20049;-61
2023/08/03 12:36:31;;;;;;;2.35;0.65;;;21.60;99.90;;;;;;5028004;28;20034;-61
2023/08/03 12:38:56;;;;;;;5.38;0.90;;;21.90;99.90;;;;;;5035375;28;20024;-59
2023/08/03 12:41:22;;;;;;;5.82;1.38;;;22.20;99.90;;;;;;5035168;28;20036;-62
2023/08/03 12:43:49;;;;;;;6.45;1.02;;;22.30;99.90;;;;;;5030894;28;20036;-62
2023/08/03 12:46:15;;;;;;;2.25;0.90;;;22.20;99.90;;;;;;5031105;28;20022;-62